Airfield :
LOGIN :

Register | Disclaimer

   EN    FR    IT 

 










Legend :    VFR   Marginal VFR   IFR   Intensive IFR   Very Intensive IFR
Visi :
Ceiling :
>= 8 km
>= 3000ft
5 to 8 km
1000 to 3000 ft
1500m to 5 km
500 to 1000 ft
800 to 1500m
200 to 500 ft
< 800m
< 200 ft
Symbols :   Thunderstorms  Fog  Heavy snow  Heavy precipitations  Wind > 20 kt
SIGMETs :     Misc.  Thunderstorms  Icing  Turbulence  Mountain Waves  Volcanic Ashes







- Airport Elevation : 408 ft
- IATA code : FKB


EDSB - Karlsruhe Baden Baden

CURRENT METAR :
  • 181450Z 26005KT 230V300 CAVOK 30/14 Q1015

EXPIRED METARs :
  • 181420Z 27005KT 210V320 CAVOK 30/14 Q1015
  • 181350Z 26007KT 220V300 CAVOK 30/13 Q1015
  • 181320Z 26007KT 220V310 CAVOK 30/13 Q1016
  • 181250Z 23007KT 180V300 CAVOK 29/13 Q1016
  • 181220Z 23008KT 200V270 CAVOK 29/13 Q1016

TAF TAF EDSB
Valid from the 18 at 12:00 until the 19 at 12:00 UTC


181100Z 1812/1912 22007KT CAVOK
BECMG 1816/1819 VRB03KT
PROB30
TEMPO 1903/1908 SHRA SCT045TCU
BECMG 1908/1911 23005KT
No reported NOTAMs for that airfield.



MET'MAP, your aeronautical weather chart ! - Copyright ORBIFLY December 2007 - Disclaimer

ORBIFLY MET'MAP TEAM :

Programming & Development : Alexandra Zaïnal
Concept & Development : Baudouin d'Aumeries
Co-Development & Prog : Marc-Olivier Méhu
Technical & hardware support : Manuel Goepfert

Contact : metmap@orbifly.com




SOURCES & CREDITS :

   NOAA